DW8947 Weather Reports


time (UTC)temp
C
wind
direction
speed
KPH
gust
KPH
rain 1hr
cm
rain 24hr
cm
rain mn
cm
humidity
%
barometer
mb
20240613044704 12 17 0.0 1.6 0.00 0.00 0.00 75 1020.3
20240613043704 12 17 0.0 0.0 0.00 0.00 0.00 74 1020.2
20240613042704 13 17 0.0 1.6 0.00 0.00 0.00 73 1020.1
20240613042205 13 17 0.0 1.6 0.00 0.00 0.00 73 1020.1
20240613041705 13 17 0.0 1.6 0.00 0.00 0.00 72 1020.0
20240613040704 13 17 0.0 1.6 0.00 0.00 0.00 71 1020.0
20240613035704 14 17 0.0 1.6 0.00 0.00 0.00 70 1020.1
20240613035204 14 17 0.0 1.6 0.00 0.00 0.00 69 1020.1
20240613033704 15 17 0.0 1.6 0.00 0.00 0.00 65 1020.3
20240613033204 15 17 0.0 1.6 0.00 0.00 0.00 66 1020.3
20240613030704 15 17 0.0 1.6 0.00 0.00 0.00 63 1020.5
20240613030204 15 17 0.0 1.6 0.00 0.00 0.00 62 1020.5
20240613023705 16 15 0.0 1.6 0.00 0.00 0.00 59 1020.7
20240613023204 16 15 0.0 1.6 0.00 0.00 0.00 59 1020.8
20240613022705 16 15 0.0 1.6 0.00 0.00 0.00 59 1020.8
20240613022204 16 15 0.0 3.2 0.00 0.00 0.00 57 1020.8
20240613021704 16 19 0.0 1.6 0.00 0.00 0.00 57 1020.7
20240613020704 16 19 0.0 1.6 0.00 0.00 0.00 59 1020.8
20240613015704 16 39 0.0 1.6 0.00 0.00 0.00 58 1020.9
20240613014705 16 7 1.6 4.8 0.00 0.00 0.00 55 1021.0
20240613013205 17 44 0.0 1.6 0.00 0.00 0.00 57 1021.2
20240613012205 17 342 0.0 4.8 0.00 0.00 0.00 55 1021.3
20240613010204 17 331 0.0 3.2 0.00 0.00 0.00 56 1021.3
20240613004704 17 312 1.6 4.8 0.00 0.00 0.00 55 1021.4
20240613004205 17 289 0.0 3.2 0.00 0.00 0.00 56 1021.5
20240613002704 17 72 1.6 4.8 0.00 0.00 0.00 55 1021.6
20240613000704 17 303 0.0 3.2 0.00 0.00 0.00 56 1021.7
20240613000204 17 347 0.0 1.6 0.00 0.00 0.00 56 1021.7
20240612234704 17 6 1.6 4.8 0.00 0.00 0.00 58 1021.9
20240612233704 17 284 1.6 4.8 0.00 0.00 0.00 56 1022.0
20240612233204 17 248 0.0 4.8 0.00 0.00 0.00 57 1022.0
20240612232704 17 9 0.0 4.8 0.00 0.00 0.00 60 1022.0
20240612231704 18 34 1.6 4.8 0.00 0.00 0.00 58 1022.0
20240612231204 18 270 0.0 1.6 0.00 0.00 0.00 59 1021.9
20240612230703 18 270 1.6 4.8 0.00 0.00 0.00 57 1022.0
20240612225204 18 295 1.6 4.8 0.00 0.00 0.00 56 1022.0
20240612224204 19 89 0.0 1.6 0.00 0.00 0.00 56 1022.0
20240612220204 20 17 0.0 4.8 0.00 0.00 0.00 53 1022.3
20240612215704 20 324 0.0 4.8 0.00 0.00 0.00 53 1022.3
20240612214704 20 324 0.0 3.2 0.00 0.00 0.00 53 1022.4
20240612213704 19 324 0.0 8.0 0.00 0.00 0.00 55 1022.5
20240612213204 19 18 0.0 4.8 0.00 0.00 0.00 55 1022.4
20240612212704 18 125 1.6 4.8 0.00 0.00 0.00 57 1022.5
20240612210704 19 145 1.6 8.0 0.00 0.00 0.00 56 1022.6
20240612210205 19 203 0.0 3.2 0.00 0.00 0.00 57 1022.6
20240612204704 18 95 1.6 4.8 0.00 0.00 0.00 60 1022.7
20240612204204 18 154 1.6 4.8 0.00 0.00 0.00 60 1022.7
20240612202704 18 294 1.6 4.8 0.00 0.00 0.00 58 1022.8
20240612202205 19 236 1.6 8.0 0.00 0.00 0.00 58 1022.8
20240612200704 18 8 1.6 8.0 0.00 0.00 0.00 60 1022.9
20240612193203 17 151 1.6 4.8 0.00 0.00 0.00 63 1023.0
20240612192704 17 183 1.6 4.8 0.00 0.00 0.00 62 1022.9
20240612192204 17 141 1.6 4.8 0.00 0.00 0.00 62 1022.9
20240612191705 17 159 0.0 1.6 0.00 0.00 0.00 61 1023.0
20240612191204 17 159 1.6 8.0 0.00 0.00 0.00 62 1023.0
20240612190704 17 169 1.6 4.8 0.00 0.00 0.00 62 1023.1
20240612185704 17 228 0.0 4.8 0.00 0.00 0.00 63 1023.0
20240612185204 16 209 1.6 4.8 0.00 0.00 0.00 63 1023.1
20240612184705 16 272 1.6 8.0 0.00 0.00 0.00 63 1023.1
20240612183705 16 264 1.6 4.8 0.00 0.00 0.00 63 1023.2
20240612182704 16 302 0.0 3.2 0.00 0.00 0.00 63 1023.3
20240612181704 16 244 0.0 4.8 0.00 0.00 0.00 64 1023.3
20240612180204 16 283 0.0 1.6 0.00 0.00 0.00 64 1023.3
20240612175704 16 283 0.0 1.6 0.00 0.00 0.00 64 1023.4
20240612175204 15 284 1.6 4.8 0.00 0.00 0.00 66 1023.3
20240612174704 15 157 1.6 4.8 0.00 0.00 0.00 67 1023.4
20240612174204 15 100 1.6 4.8 0.00 0.00 0.00 68 1023.3
20240612173203 15 119 0.0 1.6 0.00 0.00 0.00 68 1023.3
20240612172704 15 132 0.0 3.2 0.00 0.00 0.00 70 1023.3
20240612172205 15 137 0.0 4.8 0.00 0.00 0.00 70 1023.3
20240612171705 15 98 1.6 8.0 0.00 0.00 0.00 70 1023.2
20240612171205 15 233 1.6 4.8 0.00 0.00 0.00 70 1023.2
20240612170704 15 271 1.6 11.3 0.00 0.00 0.00 71 1023.2
20240612165704 15 101 1.6 4.8 0.00 0.00 0.00 70 1023.2
20240612165205 15 132 0.0 4.8 0.00 0.00 0.00 70 1023.2
20240612164204 15 180 1.6 8.0 0.00 0.00 0.00 68 1023.2
20240612163704 15 100 0.0 4.8 0.00 0.00 0.00 70 1023.2
20240612162704 15 219 1.6 4.8 0.00 0.00 0.00 72 1023.1
20240612162205 15 293 0.0 1.6 0.00 0.00 0.00 73 1023.1
20240612053204 12 181 0.0 3.2 0.00 0.00 0.00 82 1021.0
20240612052704 12 181 0.0 4.8 0.00 0.00 0.00 82 1021.0
20240612052204 12 173 0.0 0.0 0.00 0.00 0.00 83 1020.9
20240612051704 12 173 0.0 4.8 0.00 0.00 0.00 83 1020.9
20240612051204 12 250 0.0 0.0 0.00 0.00 0.00 83 1020.8
20240612050704 12 250 1.6 3.2 0.00 0.00 0.00 83 1020.8
20240612050204 12 251 0.0 4.8 0.00 0.00 0.00 83 1020.7
20240612045704 12 152 0.0 0.0 0.00 0.00 0.00 83 1020.7